Time;durP1;ratioP1;P1;durP2;ratioP2;P2;SDS_P1;SDS_P2;PMS_P1;PMS_P2;Temp;Humidity;BMP_temperature;BMP_pressure;BME280_temperature;BME280_humidity;BME280_pressure;Samples;Min_cycle;Max_cycle;Signal;HPM_P1;HPM_P2
2024/01/12 00:01:47;;;;;;;45.20;23.50;;;;;;;-2.03;100.00;99558.45;137132;1275;22247;-80
2024/01/12 00:04:49;;;;;;;35.70;20.90;;;;;;;-1.99;100.00;99555.84;137071;1275;22163;-80
2024/01/12 00:07:52;;;;;;;40.10;21.40;;;;;;;-1.93;100.00;99558.98;137031;1275;22264;-80
2024/01/12 00:10:55;;;;;;;34.40;19.90;;;;;;;-1.86;100.00;99555.87;137061;1269;22690;-81
2024/01/12 00:13:57;;;;;;;35.80;19.50;;;;;;;-1.80;100.00;99560.90;137164;1275;22695;-81
2024/01/12 00:16:59;;;;;;;31.90;16.80;;;;;;;-1.77;100.00;99559.80;137170;1274;22635;-81
2024/01/12 00:20:04;;;;;;;25.70;13.60;;;;;;;-1.72;100.00;99561.70;136957;1274;22249;-80
2024/01/12 00:23:06;;;;;;;23.70;13.10;;;;;;;-1.67;100.00;99558.86;137103;1274;22223;-80
2024/01/12 00:26:09;;;;;;;25.50;14.20;;;;;;;-1.62;100.00;99562.63;137293;1274;22238;-80
2024/01/12 00:29:11;;;;;;;30.90;15.10;;;;;;;-1.57;100.00;99559.66;137078;1274;22248;-79
2024/01/12 00:32:14;;;;;;;31.60;16.80;;;;;;;-1.54;100.00;99555.98;137065;1274;22299;-80
2024/01/12 00:35:16;;;;;;;29.50;15.80;;;;;;;-1.50;100.00;99567.98;137286;1274;22148;-80
2024/01/12 00:38:19;;;;;;;25.90;15.20;;;;;;;-1.47;100.00;99575.40;137031;1274;22808;-80
2024/01/12 00:41:22;;;;;;;30.20;15.10;;;;;;;-1.41;100.00;99577.70;137072;1274;22210;-81
2024/01/12 00:44:25;;;;;;;28.00;15.30;;;;;;;-1.37;100.00;99579.22;137295;1274;22225;-79
2024/01/12 00:47:28;;;;;;;26.30;14.60;;;;;;;-1.35;100.00;99582.11;137245;1274;22294;-81
2024/01/12 00:50:30;;;;;;;29.00;16.20;;;;;;;-1.32;100.00;99579.43;136979;1274;22182;-80
2024/01/12 00:53:33;;;;;;;32.90;16.80;;;;;;;-1.27;100.00;99578.84;136838;1271;22583;-79
2024/01/12 00:56:36;;;;;;;31.90;16.80;;;;;;;-1.26;100.00;99578.92;137330;1274;22209;-80
2024/01/12 00:59:39;;;;;;;29.60;15.90;;;;;;;-1.26;100.00;99582.36;137313;1274;22381;-80
2024/01/12 01:02:41;;;;;;;24.00;14.70;;;;;;;-1.27;100.00;99576.80;137244;1274;22172;-79
2024/01/12 01:05:44;;;;;;;25.40;15.60;;;;;;;-1.26;100.00;99580.77;137276;1275;22757;-79
2024/01/12 01:08:48;;;;;;;25.30;14.20;;;;;;;-1.27;100.00;99584.64;137278;1275;22185;-80
2024/01/12 01:11:52;;;;;;;26.20;15.40;;;;;;;-1.30;100.00;99583.83;137043;1274;22593;-80
2024/01/12 01:14:54;;;;;;;24.90;14.50;;;;;;;-1.30;100.00;99584.48;137092;1274;22547;-80
2024/01/12 01:17:57;;;;;;;30.20;15.60;;;;;;;-1.29;100.00;99587.44;136975;1275;22155;-81
2024/01/12 01:20:59;;;;;;;23.50;14.30;;;;;;;-1.30;100.00;99584.16;136988;1275;22518;-81
2024/01/12 01:24:02;;;;;;;27.20;15.60;;;;;;;-1.31;100.00;99582.17;137032;1275;24234;-80
2024/01/12 01:27:04;;;;;;;25.50;14.10;;;;;;;-1.35;100.00;99581.60;137283;1274;22324;-80
2024/01/12 01:30:07;;;;;;;23.10;13.10;;;;;;;-1.37;100.00;99583.30;137060;1271;22173;-80
2024/01/12 01:33:09;;;;;;;21.30;11.90;;;;;;;-1.39;100.00;99596.84;137006;1274;22549;-80
2024/01/12 01:36:12;;;;;;;23.50;13.50;;;;;;;-1.41;100.00;99598.70;137239;1274;22265;-80
2024/01/12 01:39:14;;;;;;;26.10;13.80;;;;;;;-1.44;100.00;99598.15;136938;1274;22328;-81
2024/01/12 01:42:16;;;;;;;27.80;13.80;;;;;;;-1.47;100.00;99590.63;137029;1274;22530;-81
2024/01/12 01:45:19;;;;;;;24.10;13.50;;;;;;;-1.52;100.00;99583.56;137239;1275;22555;-82
2024/01/12 01:48:21;;;;;;;24.20;13.60;;;;;;;-1.58;100.00;99583.33;137068;1275;22666;-80
2024/01/12 01:51:24;;;;;;;24.30;13.60;;;;;;;-1.67;100.00;99580.30;136919;1275;22419;-81
2024/01/12 01:54:26;;;;;;;28.00;14.10;;;;;;;-1.78;100.00;99578.65;136961;1275;24197;-79
2024/01/12 01:57:31;;;;;;;;;;;;;;;-1.86;100.00;99581.77;137122;1275;22545;-78
2024/01/12 02:00:34;;;;;;;26.50;13.40;;;;;;;-1.91;100.00;99588.63;136773;1275;22555;-78
2024/01/12 02:03:36;;;;;;;26.00;15.40;;;;;;;-1.90;100.00;99588.52;136879;1275;25387;-79
2024/01/12 02:06:38;;;;;;;28.70;13.90;;;;;;;-1.86;100.00;99595.45;137191;1275;22620;-79
2024/01/12 02:09:41;;;;;;;24.40;13.90;;;;;;;-1.82;100.00;99598.64;136847;1275;22211;-79
2024/01/12 02:12:43;;;;;;;29.00;13.50;;;;;;;-1.77;100.00;99598.81;136857;1275;22672;-78
2024/01/12 02:15:46;;;;;;;25.70;13.50;;;;;;;-1.73;100.00;99595.77;137092;1275;22559;-80
2024/01/12 02:18:48;;;;;;;25.30;14.80;;;;;;;-1.72;100.00;99602.34;136993;1275;22183;-80
2024/01/12 02:21:50;;;;;;;26.50;13.90;;;;;;;-1.72;100.00;99600.09;136830;1275;22234;-79
2024/01/12 02:24:53;;;;;;;23.90;13.20;;;;;;;-1.76;100.00;99606.98;136944;1275;22715;-80
2024/01/12 02:27:55;;;;;;;23.10;13.40;;;;;;;-1.81;100.00;99605.02;137225;1275;22243;-81
2024/01/12 02:30:58;;;;;;;24.30;12.60;;;;;;;-1.87;100.00;99606.64;136847;1275;22152;-79
2024/01/12 02:34:00;;;;;;;22.90;13.60;;;;;;;-1.96;100.00;99609.92;136893;1275;22548;-78
2024/01/12 02:37:03;;;;;;;31.60;15.10;;;;;;;-2.05;100.00;99614.92;137229;1275;22557;-79
2024/01/12 02:40:05;;;;;;;31.70;17.20;;;;;;;-2.14;100.00;99616.95;136867;1275;22479;-80
2024/01/12 02:43:07;;;;;;;35.70;21.00;;;;;;;-2.23;100.00;99618.34;136778;1275;22255;-79
2024/01/12 02:46:10;;;;;;;28.00;18.80;;;;;;;-2.32;100.00;99618.55;137199;1275;22553;-79
2024/01/12 02:49:12;;;;;;;33.60;16.80;;;;;;;-2.40;100.00;99617.56;136906;1271;22264;-79
2024/01/12 02:52:17;;;;;;;25.90;12.90;;;;;;;-2.46;100.00;99623.58;136903;1275;22275;-79
2024/01/12 02:55:19;;;;;;;30.90;14.70;;;;;;;-2.54;100.00;99635.80;136933;1275;25457;-80
2024/01/12 02:58:22;;;;;;;42.50;20.20;;;;;;;-2.63;100.00;99637.52;137280;1275;22820;-80
2024/01/12 03:01:24;;;;;;;30.10;12.60;;;;;;;-2.69;100.00;99631.20;136771;1275;22402;-81
2024/01/12 03:04:27;;;;;;;25.80;12.50;;;;;;;-2.75;100.00;99630.92;136903;1275;22218;-79
2024/01/12 03:07:32;;;;;;;21.00;11.50;;;;;;;-2.79;100.00;99634.73;137351;1275;22191;-81
2024/01/12 03:10:34;;;;;;;23.90;11.50;;;;;;;-2.79;100.00;99636.04;136982;1275;22297;-80
2024/01/12 03:13:41;;;;;;;26.90;13.50;;;;;;;-2.79;100.00;99635.89;137153;1274;22261;-80
2024/01/12 03:16:43;;;;;;;30.00;14.20;;;;;;;-2.79;100.00;99637.77;137046;1275;22586;-80
2024/01/12 03:19:48;;;;;;;26.40;14.10;;;;;;;-2.79;100.00;99640.67;137140;1273;22544;-80
2024/01/12 03:22:50;;;;;;;26.10;13.40;;;;;;;-2.77;100.00;99642.52;136950;1274;22200;-78
2024/01/12 03:25:53;;;;;;;20.90;13.10;;;;;;;-2.76;100.00;99642.95;136929;1274;22607;-80
2024/01/12 03:28:55;;;;;;;20.20;12.00;;;;;;;-2.73;100.00;99650.33;137332;1273;22300;-80
2024/01/12 03:31:58;;;;;;;21.00;12.50;;;;;;;-2.69;100.00;99657.77;136992;1274;22447;-80
2024/01/12 03:35:00;;;;;;;25.50;11.30;;;;;;;-2.66;100.00;99659.55;137058;1273;22724;-79
2024/01/12 03:38:03;;;;;;;25.60;12.60;;;;;;;-2.65;100.00;99657.95;137386;1274;22347;-80
2024/01/12 03:41:05;;;;;;;21.30;12.60;;;;;;;-2.64;100.00;99658.70;136962;1274;22332;-80
2024/01/12 03:44:08;;;;;;;31.40;12.20;;;;;;;-2.62;100.00;99657.14;137078;1274;22189;-80
2024/01/12 03:47:10;;;;;;;20.50;10.60;;;;;;;-2.60;100.00;99652.38;137202;1273;25488;-80
2024/01/12 03:50:12;;;;;;;21.50;11.50;;;;;;;-2.60;100.00;99655.23;137281;1274;22464;-80
2024/01/12 03:53:15;;;;;;;24.80;11.70;;;;;;;-2.66;100.00;99658.00;137033;1273;22158;-80
2024/01/12 03:56:17;;;;;;;21.90;11.80;;;;;;;-2.72;100.00;99662.68;137098;1274;22485;-80
2024/01/12 03:59:20;;;;;;;27.80;11.80;;;;;;;-2.75;100.00;99656.65;137469;1274;22240;-80
2024/01/12 04:02:22;;;;;;;19.00;10.70;;;;;;;-2.77;100.00;99660.25;137496;1274;22203;-81
2024/01/12 04:05:25;;;;;;;26.30;12.60;;;;;;;-2.76;100.00;99664.07;137068;1274;22711;-82
2024/01/12 04:08:27;;;;;;;20.70;11.60;;;;;;;-2.77;100.00;99664.87;137464;1273;22286;-81
2024/01/12 04:11:30;;;;;;;24.20;11.40;;;;;;;-2.78;100.00;99663.09;137476;1274;22215;-81
2024/01/12 04:14:32;;;;;;;24.90;11.90;;;;;;;-2.81;100.00;99666.59;137452;1273;22250;-82
2024/01/12 04:17:35;;;;;;;22.50;12.50;;;;;;;-2.87;100.00;99670.54;137447;1274;22584;-79
2024/01/12 04:20:38;;;;;;;22.80;11.10;;;;;;;-2.90;100.00;99665.70;137492;1274;22728;-79
2024/01/12 04:23:40;;;;;;;23.00;11.50;;;;;;;-2.91;100.00;99665.45;137456;1274;22450;-79
2024/01/12 04:26:43;;;;;;;21.90;11.90;;;;;;;-2.96;100.00;99669.30;136950;1273;22553;-82
2024/01/12 04:29:45;;;;;;;23.70;10.20;;;;;;;-3.05;100.00;99676.15;137476;1274;22652;-80
2024/01/12 04:32:47;;;;;;;23.90;11.50;;;;;;;-3.16;100.00;99682.55;137017;1273;22212;-80
2024/01/12 04:35:50;;;;;;;23.60;11.10;;;;;;;-3.26;100.00;99688.23;137475;1274;22233;-80
2024/01/12 04:38:52;;;;;;;25.00;11.00;;;;;;;-3.37;100.00;99688.61;137292;1274;22551;-80
2024/01/12 04:41:55;;;;;;;22.50;11.40;;;;;;;-3.48;100.00;99680.22;136996;1274;22497;-80
2024/01/12 04:44:58;;;;;;;27.90;14.00;;;;;;;-3.54;100.00;99682.09;136954;1273;22880;-78
2024/01/12 04:48:00;;;;;;;31.60;12.60;;;;;;;-3.58;100.00;99682.98;137195;1273;22627;-78
2024/01/12 04:51:03;;;;;;;22.40;11.20;;;;;;;-3.59;100.00;99688.97;137174;1273;22838;-78
2024/01/12 04:54:05;;;;;;;18.40;9.80;;;;;;;-3.58;100.00;99690.75;136813;1274;22696;-79
2024/01/12 04:57:08;;;;;;;18.90;10.90;;;;;;;-3.57;100.00;99694.10;137403;1273;22177;-77
2024/01/12 05:00:10;;;;;;;18.40;10.30;;;;;;;-3.52;100.00;99694.98;137408;1256;22577;-77
2024/01/12 05:03:13;;;;;;;22.40;11.20;;;;;;;-3.48;100.00;99693.58;136932;1273;22196;-77
2024/01/12 05:06:15;;;;;;;20.90;11.10;;;;;;;-3.46;100.00;99694.34;137478;1273;22248;-77
2024/01/12 05:09:18;;;;;;;20.50;10.50;;;;;;;-3.41;100.00;99693.36;137439;1274;22359;-77
2024/01/12 05:12:21;;;;;;;21.90;10.40;;;;;;;-3.41;100.00;99693.02;137434;1263;22312;-78
2024/01/12 05:15:23;;;;;;;20.20;11.40;;;;;;;-3.40;100.00;99694.46;137400;1270;22207;-76
2024/01/12 05:18:26;;;;;;;15.70;9.60;;;;;;;-3.37;100.00;99690.10;137163;1275;22733;-78
2024/01/12 05:21:28;;;;;;;22.70;10.30;;;;;;;-3.33;100.00;99698.59;136699;1274;22421;-78
2024/01/12 05:24:31;;;;;;;18.30;10.40;;;;;;;-3.33;100.00;99699.08;136680;1273;22706;-80
2024/01/12 05:27:33;;;;;;;20.90;12.00;;;;;;;-3.35;100.00;99700.33;137252;1274;22598;-78
2024/01/12 05:30:36;;;;;;;17.50;9.90;;;;;;;-3.33;100.00;99708.44;137179;1274;22153;-78
2024/01/12 05:33:38;;;;;;;26.20;15.30;;;;;;;-3.31;100.00;99709.96;137421;1274;22271;-78
2024/01/12 05:36:41;;;;;;;16.40;10.10;;;;;;;-3.26;100.00;99716.38;137440;1275;22299;-78
2024/01/12 05:39:43;;;;;;;21.20;11.00;;;;;;;-3.19;100.00;99721.46;137441;1273;22856;-77
2024/01/12 05:42:46;;;;;;;19.30;10.80;;;;;;;-3.12;100.00;99724.92;137452;1274;22289;-77
2024/01/12 05:45:48;;;;;;;20.90;11.10;;;;;;;-3.07;100.00;99725.52;136637;1273;22220;-79
2024/01/12 05:48:51;;;;;;;19.20;10.60;;;;;;;-3.00;100.00;99734.58;137367;1274;22095;-79
2024/01/12 05:51:53;;;;;;;19.60;11.10;;;;;;;-2.93;100.00;99739.21;137356;1274;22202;-78
2024/01/12 05:54:56;;;;;;;15.80;10.80;;;;;;;-2.85;100.00;99740.49;137341;1274;22132;-78
2024/01/12 05:57:58;;;;;;;27.60;14.40;;;;;;;-2.79;100.00;99739.48;137393;1273;22114;-80
2024/01/12 06:01:01;;;;;;;25.50;14.20;;;;;;;-2.76;100.00;99745.48;137378;1274;22327;-78
2024/01/12 06:04:03;;;;;;;29.10;13.80;;;;;;;-2.76;100.00;99743.27;136871;1273;22825;-79
2024/01/12 06:07:06;;;;;;;25.00;12.60;;;;;;;-2.75;100.00;99742.89;136711;1274;25249;-77
2024/01/12 06:10:08;;;;;;;24.90;11.70;;;;;;;-2.72;100.00;99745.44;137282;1273;22250;-79
2024/01/12 06:13:11;;;;;;;25.30;11.20;;;;;;;-2.74;100.00;99746.01;137438;1274;22344;-78
2024/01/12 06:16:14;;;;;;;28.00;12.20;;;;;;;-2.66;100.00;99751.38;137449;1273;22168;-78
2024/01/12 06:19:16;;;;;;;17.90;9.70;;;;;;;-2.64;100.00;99754.42;137350;1274;22214;-78
2024/01/12 06:22:19;;;;;;;17.70;10.00;;;;;;;-2.71;100.00;99756.67;137308;1273;22185;-78
2024/01/12 06:25:21;;;;;;;20.60;11.70;;;;;;;-2.65;100.00;99754.19;137335;1270;22253;-77
2024/01/12 06:28:24;;;;;;;29.30;15.50;;;;;;;-2.59;100.00;99759.48;137312;1274;22565;-77
2024/01/12 06:31:26;;;;;;;29.70;16.00;;;;;;;-2.54;100.00;99758.48;137297;1274;22228;-78
2024/01/12 06:34:29;;;;;;;22.10;11.60;;;;;;;-2.57;100.00;99762.02;137361;1273;22242;-77
2024/01/12 06:37:31;;;;;;;30.30;11.50;;;;;;;-2.65;100.00;99760.55;137382;1270;22756;-78
2024/01/12 06:40:34;;;;;;;24.40;11.70;;;;;;;-2.63;100.00;99756.91;137384;1274;22435;-78
2024/01/12 06:43:36;;;;;;;26.50;11.90;;;;;;;-2.55;100.00;99759.30;137394;1274;22226;-76
2024/01/12 06:46:39;;;;;;;29.60;12.00;;;;;;;-2.59;100.00;99758.96;137379;1274;22284;-79
2024/01/12 06:49:41;;;;;;;31.60;12.70;;;;;;;-2.60;100.00;99761.65;137373;1260;22119;-80
2024/01/12 06:52:43;;;;;;;31.30;12.90;;;;;;;-2.58;100.00;99762.81;137377;1274;22690;-78
2024/01/12 06:55:46;;;;;;;35.30;13.00;;;;;;;-2.60;100.00;99762.81;137360;1274;22242;-78
2024/01/12 06:58:49;;;;;;;23.50;11.00;;;;;;;-2.62;100.00;99764.65;137326;1273;22138;-78
2024/01/12 07:01:51;;;;;;;20.10;9.80;;;;;;;-2.61;100.00;99763.02;137327;1274;22310;-77
2024/01/12 07:04:54;;;;;;;18.30;10.90;;;;;;;-2.61;100.00;99764.08;137411;1274;22274;-79
2024/01/12 07:07:56;;;;;;;30.20;12.10;;;;;;;-2.63;100.00;99762.36;136931;1274;22655;-79
2024/01/12 07:10:58;;;;;;;28.00;11.70;;;;;;;-2.60;100.00;99760.45;137390;1274;22205;-78
2024/01/12 07:14:01;;;;;;;31.80;12.20;;;;;;;-2.59;100.00;99764.79;137388;1273;22406;-77
2024/01/12 07:17:04;;;;;;;22.30;11.10;;;;;;;-2.67;100.00;99761.05;136960;1273;22248;-78
2024/01/12 07:20:06;;;;;;;21.70;11.10;;;;;;;-2.71;100.00;99758.14;137214;1274;22514;-78
2024/01/12 07:23:09;;;;;;;25.50;11.60;;;;;;;-2.71;100.00;99759.87;136598;1268;22248;-79
2024/01/12 07:26:11;;;;;;;20.00;10.50;;;;;;;-2.75;100.00;99759.55;136893;1273;25997;-78
2024/01/12 07:29:14;;;;;;;23.30;11.70;;;;;;;-2.84;100.00;99759.17;137082;1274;24311;-79
2024/01/12 07:32:17;;;;;;;31.80;14.30;;;;;;;-2.96;100.00;99755.52;136781;1273;22633;-79
2024/01/12 07:35:22;;;;;;;18.90;10.10;;;;;;;-2.97;100.00;99755.42;136907;1274;22232;-79
2024/01/12 07:38:24;;;;;;;20.30;10.60;;;;;;;-2.96;100.00;99756.52;136930;1274;23019;-78
2024/01/12 07:41:29;;;;;;;19.90;10.50;;;;;;;-2.99;100.00;99753.73;137068;1273;22585;-75
2024/01/12 07:44:32;;;;;;;30.00;13.30;;;;;;;-2.97;100.00;99746.39;137087;1273;300875;-77
2024/01/12 07:47:34;;;;;;;30.80;15.10;;;;;;;-2.97;100.00;99747.61;137564;1274;22432;-78
2024/01/12 07:50:37;;;;;;;31.40;14.30;;;;;;;-3.01;100.00;99747.63;137567;1273;22322;-77
2024/01/12 07:53:39;;;;;;;44.10;16.70;;;;;;;-3.02;100.00;99752.29;137233;1273;22290;-76
2024/01/12 07:56:42;;;;;;;21.20;12.00;;;;;;;-3.06;100.00;99754.73;137457;1273;22214;-77
2024/01/12 07:59:44;;;;;;;21.90;11.50;;;;;;;-3.14;100.00;99756.95;137365;1274;22973;-77
2024/01/12 08:02:47;;;;;;;24.20;10.80;;;;;;;-3.23;100.00;99760.54;137248;1274;22334;-77
2024/01/12 08:05:50;;;;;;;14.70;10.00;;;;;;;-3.22;100.00;99763.14;137358;1273;22239;-78
2024/01/12 08:08:53;;;;;;;18.20;10.50;;;;;;;-3.13;100.00;99766.71;137296;1270;22253;-77
2024/01/12 08:11:55;;;;;;;24.00;13.30;;;;;;;-3.04;100.00;99770.38;137292;1273;22261;-75
2024/01/12 08:14:58;;;;;;;20.20;11.90;;;;;;;-2.90;100.00;99777.47;137331;1273;22266;-76
2024/01/12 08:18:01;;;;;;;24.00;11.00;;;;;;;-2.79;100.00;99781.36;137328;1274;22195;-77
2024/01/12 08:21:03;;;;;;;27.10;13.80;;;;;;;-2.73;100.00;99784.59;137334;1273;22376;-77
2024/01/12 08:24:09;;;;;;;24.10;13.60;;;;;;;-2.72;100.00;99787.73;137346;1273;22219;-77
2024/01/12 08:27:11;;;;;;;25.40;16.80;;;;;;;-2.71;100.00;99792.79;137332;1273;23545;-78
2024/01/12 08:30:14;;;;;;;23.40;15.30;;;;;;;-2.67;100.00;99788.80;137330;1273;22243;-76
2024/01/12 08:33:16;;;;;;;26.10;15.40;;;;;;;-2.58;100.00;99785.41;137345;1273;22177;-76
2024/01/12 08:36:18;;;;;;;23.40;12.10;;;;;;;-2.54;100.00;99788.11;137342;1273;22150;-77
2024/01/12 08:39:21;;;;;;;43.20;23.70;;;;;;;-2.53;100.00;99792.76;137397;1273;22226;-78
2024/01/12 08:42:23;;;;;;;124.40;66.50;;;;;;;-2.44;100.00;99800.31;137324;1274;22241;-77
2024/01/12 08:45:26;;;;;;;61.60;34.80;;;;;;;-2.38;100.00;99801.98;137348;1273;22339;-76
2024/01/12 08:48:29;;;;;;;22.50;12.50;;;;;;;-2.32;100.00;99803.66;137354;1273;22238;-77
2024/01/12 08:51:31;;;;;;;21.30;10.20;;;;;;;-2.23;100.00;99798.42;137315;1273;22202;-78
2024/01/12 08:54:34;;;;;;;27.30;11.00;;;;;;;-1.98;100.00;99796.04;137343;1273;22219;-77
2024/01/12 08:57:36;;;;;;;28.20;12.50;;;;;;;-1.68;100.00;99808.56;137361;1273;22207;-76
2024/01/12 09:00:39;;;;;;;18.80;9.20;;;;;;;-1.51;100.00;99806.77;137319;1273;22251;-76
2024/01/12 09:03:41;;;;;;;14.40;8.70;;;;;;;-1.42;100.00;99812.95;137363;1273;22236;-77
2024/01/12 09:06:44;;;;;;;22.40;9.90;;;;;;;-1.46;100.00;99812.47;137370;1273;22302;-77
2024/01/12 09:09:47;;;;;;;17.50;8.80;;;;;;;-1.65;100.00;99813.77;137365;1274;22799;-77
2024/01/12 09:12:49;;;;;;;22.90;10.90;;;;;;;-1.64;100.00;99814.16;137322;1273;22899;-78
2024/01/12 09:15:52;;;;;;;23.00;9.70;;;;;;;-1.56;100.00;99815.23;137323;1273;22266;-77
2024/01/12 09:18:54;;;;;;;28.20;13.60;;;;;;;-1.42;100.00;99812.09;137338;1273;22313;-77
2024/01/12 09:21:57;;;;;;;22.10;10.30;;;;;;;-1.22;100.00;99802.95;137315;1273;22267;-77
2024/01/12 09:24:59;;;;;;;17.30;9.30;;;;;;;-1.07;100.00;99799.93;137304;1273;22348;-76
2024/01/12 09:28:02;;;;;;;23.40;10.10;;;;;;;-0.87;100.00;99797.35;137350;1259;22269;-76
2024/01/12 09:31:04;;;;;;;19.10;8.90;;;;;;;-0.62;100.00;99795.02;137320;1273;22834;-76
2024/01/12 09:34:07;;;;;;;15.50;9.70;;;;;;;-0.58;100.00;99798.88;137346;1273;22249;-76
2024/01/12 09:37:10;;;;;;;21.30;9.50;;;;;;;-0.76;100.00;99806.97;137337;1273;22720;-76
2024/01/12 09:40:12;;;;;;;21.50;10.40;;;;;;;-1.02;100.00;99805.59;137340;1273;22222;-76
2024/01/12 09:43:15;;;;;;;18.10;8.30;;;;;;;-1.16;100.00;99804.92;137362;1265;22283;-77
2024/01/12 09:46:17;;;;;;;19.00;9.60;;;;;;;-1.01;100.00;99794.89;137351;1273;23101;-77
2024/01/12 09:49:20;;;;;;;28.20;12.30;;;;;;;-0.62;100.00;99790.90;137322;1273;22230;-76
2024/01/12 09:52:22;;;;;;;31.60;13.00;;;;;;;-0.40;100.00;99787.35;137318;1273;22316;-76
2024/01/12 09:55:25;;;;;;;22.00;9.60;;;;;;;-0.22;100.00;99782.58;137032;1273;22265;-77
2024/01/12 09:58:27;;;;;;;17.80;8.30;;;;;;;-0.28;100.00;99780.98;137348;1273;22213;-77
2024/01/12 10:01:31;;;;;;;12.20;7.50;;;;;;;-0.33;100.00;99785.09;137354;1273;22324;-76
2024/01/12 10:04:33;;;;;;;20.50;10.10;;;;;;;-0.58;100.00;99786.55;137481;1273;22345;-76
2024/01/12 10:07:36;;;;;;;17.10;9.60;;;;;;;-0.75;100.00;99793.23;137397;1273;22760;-76
2024/01/12 10:10:38;;;;;;;18.90;9.80;;;;;;;-0.84;100.00;99788.85;137411;1273;22240;-76
2024/01/12 10:13:41;;;;;;;22.40;10.50;;;;;;;-0.66;100.00;99785.84;137384;1273;22269;-76
2024/01/12 10:16:44;;;;;;;17.50;10.40;;;;;;;-0.67;100.00;99790.89;137373;1273;22292;-76
2024/01/12 10:19:46;;;;;;;28.10;13.00;;;;;;;-0.77;100.00;99791.86;137366;1273;22199;-77
2024/01/12 10:22:49;;;;;;;22.30;11.20;;;;;;;-0.85;100.00;99787.21;137380;1273;22335;-76
2024/01/12 10:25:51;;;;;;;24.20;12.20;;;;;;;-0.93;100.00;99783.21;137374;1273;22209;-76
2024/01/12 10:28:54;;;;;;;27.50;15.00;;;;;;;-0.88;100.00;99784.27;137376;1273;22384;-76
2024/01/12 10:31:56;;;;;;;27.40;14.20;;;;;;;-0.69;100.00;99778.83;137327;1273;22650;-75
2024/01/12 10:34:59;;;;;;;25.50;12.90;;;;;;;-0.48;100.00;99776.50;137345;1273;22255;-77
2024/01/12 10:38:01;;;;;;;22.70;12.30;;;;;;;0.06;100.00;99763.77;137393;1273;22213;-77
2024/01/12 10:41:04;;;;;;;23.70;13.60;;;;;;;0.43;100.00;99756.24;137394;1273;22981;-76
2024/01/12 10:44:06;;;;;;;19.80;11.40;;;;;;;0.48;100.00;99755.52;137346;1273;22249;-77
2024/01/12 10:47:09;;;;;;;17.80;10.30;;;;;;;0.37;100.00;99758.05;137355;1273;22340;-75
2024/01/12 10:50:11;;;;;;;23.50;12.30;;;;;;;0.26;100.00;99746.55;137356;1273;23052;-76
2024/01/12 10:53:14;;;;;;;20.50;11.80;;;;;;;0.27;100.00;99735.45;137313;1255;22154;-75
2024/01/12 10:56:17;;;;;;;24.00;12.60;;;;;;;0.21;100.00;99730.95;137308;1273;22219;-75
2024/01/12 10:59:20;;;;;;;24.80;10.70;;;;;;;0.17;100.00;99727.27;137275;1273;22608;-76
2024/01/12 11:02:22;;;;;;;16.50;9.40;;;;;;;0.13;100.00;99726.45;137269;1273;22244;-75
2024/01/12 11:05:25;;;;;;;20.60;10.50;;;;;;;0.02;100.00;99723.84;137284;1273;22251;-76
2024/01/12 11:08:27;;;;;;;24.70;11.00;;;;;;;0.02;100.00;99721.79;137271;1273;22316;-76
2024/01/12 11:11:29;;;;;;;34.10;15.00;;;;;;;0.09;100.00;99716.27;137283;1273;22265;-75
2024/01/12 11:14:32;;;;;;;29.30;13.40;;;;;;;0.12;100.00;99711.89;137271;1262;22227;-75
2024/01/12 11:17:34;;;;;;;22.40;11.70;;;;;;;0.15;100.00;99717.17;137308;1273;22237;-75
2024/01/12 11:20:38;;;;;;;22.60;12.30;;;;;;;0.12;100.00;99715.41;137284;1273;22732;-76
2024/01/12 11:23:41;;;;;;;27.50;13.90;;;;;;;0.16;100.00;99708.69;137292;1273;22219;-76
2024/01/12 11:26:43;;;;;;;19.80;11.40;;;;;;;0.13;100.00;99704.23;137282;1273;22374;-75
2024/01/12 11:29:46;;;;;;;25.60;13.90;;;;;;;0.10;100.00;99699.39;137276;1270;23151;-76
2024/01/12 11:32:49;;;;;;;22.00;12.00;;;;;;;-0.00;100.00;99694.27;137273;1273;22237;-74
2024/01/12 11:35:51;;;;;;;26.70;15.30;;;;;;;-0.13;100.00;99690.31;137278;1273;22387;-75
2024/01/12 11:38:55;;;;;;;31.80;13.80;;;;;;;-0.20;100.00;99681.50;137315;1273;22307;-75
2024/01/12 11:41:58;;;;;;;33.00;14.90;;;;;;;-0.19;100.00;99672.27;137264;1273;22360;-75
2024/01/12 11:45:02;;;;;;;32.30;15.70;;;;;;;-0.26;100.00;99671.63;137267;1274;22273;-76
2024/01/12 11:48:04;;;;;;;22.40;12.00;;;;;;;-0.37;100.00;99669.01;137287;1273;22900;-77
2024/01/12 11:51:07;;;;;;;19.30;11.70;;;;;;;-0.55;100.00;99665.70;137291;1273;22167;-76
2024/01/12 11:54:09;;;;;;;33.10;17.00;;;;;;;-0.65;100.00;99664.55;137255;1273;22266;-76
2024/01/12 11:57:12;;;;;;;35.40;15.40;;;;;;;-0.70;100.00;99664.73;137273;1273;23111;-76
2024/01/12 12:00:14;;;;;;;30.10;15.10;;;;;;;-0.75;100.00;99662.67;137315;1273;22238;-76
2024/01/12 12:03:17;;;;;;;39.50;17.30;;;;;;;-0.76;100.00;99665.46;137285;1273;22240;-75
2024/01/12 12:06:19;;;;;;;30.80;14.70;;;;;;;-0.68;100.00;99670.63;137316;1273;22254;-76
2024/01/12 12:09:22;;;;;;;26.10;14.00;;;;;;;-0.60;100.00;99668.45;137350;1273;22232;-76
2024/01/12 12:12:24;;;;;;;26.90;13.60;;;;;;;-0.57;100.00;99672.90;137367;1273;22688;-76
2024/01/12 12:15:26;;;;;;;32.50;15.90;;;;;;;-0.65;100.00;99667.27;137330;1273;22223;-76
2024/01/12 12:18:29;;;;;;;33.80;15.90;;;;;;;-0.81;100.00;99662.38;137406;1273;22173;-77
2024/01/12 12:21:31;;;;;;;31.30;14.10;;;;;;;-0.94;100.00;99646.61;137443;1273;22661;-77
2024/01/12 12:24:36;;;;;;;25.10;13.40;;;;;;;-1.07;100.00;99644.47;137377;1273;22265;-77
2024/01/12 12:27:38;;;;;;;26.20;13.50;;;;;;;-0.63;100.00;99634.23;137375;1273;22244;-77
2024/01/12 12:30:41;;;;;;;28.70;14.40;;;;;;;0.21;100.00;99616.92;137351;1273;22241;-76
2024/01/12 12:33:44;;;;;;;25.10;14.50;;;;;;;0.59;100.00;99607.88;137310;1273;22235;-77
2024/01/12 12:36:47;;;;;;;30.80;15.40;;;;;;;0.32;100.00;99599.17;137334;1273;22884;-76
2024/01/12 12:39:49;;;;;;;38.80;18.10;;;;;;;0.06;100.00;99601.61;137326;1273;22216;-78
2024/01/12 12:42:52;;;;;;;47.50;20.50;;;;;;;-0.34;100.00;99594.66;137331;1273;22608;-77
2024/01/12 12:45:54;;;;;;;54.10;23.00;;;;;;;-0.55;100.00;99594.29;137356;1273;22280;-77
2024/01/12 12:48:57;;;;;;;59.20;26.10;;;;;;;-0.65;100.00;99589.51;137410;1273;22415;-77
2024/01/12 12:51:59;;;;;;;70.10;27.10;;;;;;;-0.69;100.00;99595.04;137325;1273;22698;-78
2024/01/12 12:55:03;;;;;;;81.50;36.90;;;;;;;-0.69;100.00;99599.84;137392;1273;22065;-78
2024/01/12 12:58:05;;;;;;;49.50;21.60;;;;;;;-0.72;100.00;99597.73;137402;1273;22208;-77
2024/01/12 13:01:08;;;;;;;43.10;18.80;;;;;;;-0.70;100.00;99591.91;137390;1273;22807;-77
2024/01/12 13:04:11;;;;;;;39.60;18.50;;;;;;;-0.56;100.00;99589.55;137438;1273;22094;-77
2024/01/12 13:07:19;;;;;;;41.70;19.50;;;;;;;-0.41;100.00;99588.55;137228;1273;22409;-77
2024/01/12 13:10:23;;;;;;;42.50;19.50;;;;;;;-0.23;100.00;99591.94;136555;1273;22262;-78
2024/01/12 13:13:25;;;;;;;46.30;20.50;;;;;;;-0.34;100.00;99586.27;137544;1273;22171;-77
2024/01/12 13:16:28;;;;;;;48.00;20.60;;;;;;;-0.59;100.00;99579.98;137517;1273;22207;-77
2024/01/12 13:19:30;;;;;;;43.90;20.00;;;;;;;-0.61;100.00;99583.95;137538;1273;22352;-78
2024/01/12 13:22:32;;;;;;;43.20;16.70;;;;;;;-0.63;100.00;99579.05;137455;1273;22287;-79
2024/01/12 13:25:35;;;;;;;45.70;18.20;;;;;;;-0.68;100.00;99583.32;137405;1273;22679;-79
2024/01/12 13:28:38;;;;;;;44.60;19.30;;;;;;;-0.69;100.00;99583.05;137327;1273;22248;-78
2024/01/12 13:31:42;;;;;;;40.60;17.70;;;;;;;-0.75;100.00;99584.22;137307;1273;22201;-77
2024/01/12 13:34:45;;;;;;;42.00;18.30;;;;;;;-0.90;100.00;99585.49;137290;1273;22214;-77
2024/01/12 13:37:47;;;;;;;51.70;20.70;;;;;;;-0.92;100.00;99588.95;137329;1273;22258;-78
2024/01/12 13:40:49;;;;;;;44.80;20.00;;;;;;;-0.94;100.00;99575.67;137363;1273;22182;-77